sensor_id;sensor_type;location;lat;lon;timestamp;P1;durP1;ratioP1;P2;durP2;ratioP2
7879;SDS011;3985;49.366;2.738;2022-12-10T00:00:19;64.00;;;50.67;;
7879;SDS011;3985;49.366;2.738;2022-12-10T00:02:47;71.00;;;56.33;;
7879;SDS011;3985;49.366;2.738;2022-12-10T00:05:17;61.33;;;51.33;;
7879;SDS011;3985;49.366;2.738;2022-12-10T00:07:44;60.00;;;46.00;;
7879;SDS011;3985;49.366;2.738;2022-12-10T00:10:12;66.33;;;51.67;;
7879;SDS011;3985;49.366;2.738;2022-12-10T00:12:40;75.00;;;54.00;;
7879;SDS011;3985;49.366;2.738;2022-12-10T00:15:08;64.67;;;52.00;;
7879;SDS011;3985;49.366;2.738;2022-12-10T00:17:36;69.33;;;52.67;;
7879;SDS011;3985;49.366;2.738;2022-12-10T00:20:04;67.67;;;54.33;;
7879;SDS011;3985;49.366;2.738;2022-12-10T00:22:34;74.00;;;55.33;;
7879;SDS011;3985;49.366;2.738;2022-12-10T00:25:02;69.67;;;53.00;;
7879;SDS011;3985;49.366;2.738;2022-12-10T00:27:31;61.33;;;50.33;;
7879;SDS011;3985;49.366;2.738;2022-12-10T00:29:58;60.67;;;47.00;;
7879;SDS011;3985;49.366;2.738;2022-12-10T00:32:26;64.67;;;52.67;;
7879;SDS011;3985;49.366;2.738;2022-12-10T00:34:54;69.00;;;54.33;;
7879;SDS011;3985;49.366;2.738;2022-12-10T00:37:22;68.00;;;56.00;;
7879;SDS011;3985;49.366;2.738;2022-12-10T00:39:51;62.33;;;49.00;;
7879;SDS011;3985;49.366;2.738;2022-12-10T00:42:18;57.00;;;47.00;;
7879;SDS011;3985;49.366;2.738;2022-12-10T00:44:46;69.67;;;55.00;;
7879;SDS011;3985;49.366;2.738;2022-12-10T00:47:13;74.67;;;56.33;;
7879;SDS011;3985;49.366;2.738;2022-12-10T00:49:41;64.33;;;52.33;;
7879;SDS011;3985;49.366;2.738;2022-12-10T00:52:08;64.33;;;52.67;;
7879;SDS011;3985;49.366;2.738;2022-12-10T00:54:36;63.00;;;52.33;;
7879;SDS011;3985;49.366;2.738;2022-12-10T00:57:05;69.33;;;53.67;;
7879;SDS011;3985;49.366;2.738;2022-12-10T00:59:32;67.67;;;53.00;;
7879;SDS011;3985;49.366;2.738;2022-12-10T01:02:00;68.33;;;53.67;;
7879;SDS011;3985;49.366;2.738;2022-12-10T01:04:27;61.67;;;50.00;;
7879;SDS011;3985;49.366;2.738;2022-12-10T01:06:55;68.33;;;52.00;;
7879;SDS011;3985;49.366;2.738;2022-12-10T01:09:24;59.67;;;50.67;;
7879;SDS011;3985;49.366;2.738;2022-12-10T01:11:54;64.67;;;52.00;;
7879;SDS011;3985;49.366;2.738;2022-12-10T01:14:25;59.67;;;47.67;;
7879;SDS011;3985;49.366;2.738;2022-12-10T01:16:54;61.33;;;48.33;;
7879;SDS011;3985;49.366;2.738;2022-12-10T01:19:24;55.67;;;45.67;;
7879;SDS011;3985;49.366;2.738;2022-12-10T01:21:52;52.00;;;44.33;;
7879;SDS011;3985;49.366;2.738;2022-12-10T01:24:20;68.00;;;52.67;;
7879;SDS011;3985;49.366;2.738;2022-12-10T01:26:48;65.67;;;51.33;;
7879;SDS011;3985;49.366;2.738;2022-12-10T01:29:16;71.67;;;51.67;;
7879;SDS011;3985;49.366;2.738;2022-12-10T01:31:45;62.33;;;53.00;;
7879;SDS011;3985;49.366;2.738;2022-12-10T01:34:13;52.67;;;44.33;;
7879;SDS011;3985;49.366;2.738;2022-12-10T01:36:42;60.33;;;43.67;;
7879;SDS011;3985;49.366;2.738;2022-12-10T01:39:12;67.67;;;53.33;;
7879;SDS011;3985;49.366;2.738;2022-12-10T01:41:41;63.67;;;52.00;;
7879;SDS011;3985;49.366;2.738;2022-12-10T01:47:18;55.00;;;45.00;;
7879;SDS011;3985;49.366;2.738;2022-12-10T01:49:45;59.00;;;48.67;;
7879;SDS011;3985;49.366;2.738;2022-12-10T01:52:13;64.00;;;48.00;;
7879;SDS011;3985;49.366;2.738;2022-12-10T01:54:41;48.67;;;39.67;;
7879;SDS011;3985;49.366;2.738;2022-12-10T01:57:10;64.67;;;51.00;;
7879;SDS011;3985;49.366;2.738;2022-12-10T01:59:40;46.67;;;39.00;;
7879;SDS011;3985;49.366;2.738;2022-12-10T02:02:11;45.33;;;41.00;;
7879;SDS011;3985;49.366;2.738;2022-12-10T02:04:45;48.67;;;42.67;;
7879;SDS011;3985;49.366;2.738;2022-12-10T02:07:19;46.67;;;41.33;;
7879;SDS011;3985;49.366;2.738;2022-12-10T02:09:52;39.33;;;39.33;;
7879;SDS011;3985;49.366;2.738;2022-12-10T02:12:27;41.67;;;33.67;;
7879;SDS011;3985;49.366;2.738;2022-12-10T02:14:58;50.33;;;42.67;;
7879;SDS011;3985;49.366;2.738;2022-12-10T02:17:30;48.00;;;39.67;;
7879;SDS011;3985;49.366;2.738;2022-12-10T02:20:06;45.25;;;40.00;;
7879;SDS011;3985;49.366;2.738;2022-12-10T02:22:37;51.00;;;41.00;;
7879;SDS011;3985;49.366;2.738;2022-12-10T02:25:07;59.67;;;47.67;;
7879;SDS011;3985;49.366;2.738;2022-12-10T02:27:40;53.67;;;43.33;;
7879;SDS011;3985;49.366;2.738;2022-12-10T02:30:15;55.67;;;48.33;;
7879;SDS011;3985;49.366;2.738;2022-12-10T02:32:43;46.33;;;42.33;;
7879;SDS011;3985;49.366;2.738;2022-12-10T02:35:13;57.00;;;47.67;;
7879;SDS011;3985;49.366;2.738;2022-12-10T02:37:47;61.67;;;46.33;;
7879;SDS011;3985;49.366;2.738;2022-12-10T02:40:18;44.00;;;38.33;;
7879;SDS011;3985;49.366;2.738;2022-12-10T02:42:47;53.33;;;42.67;;
7879;SDS011;3985;49.366;2.738;2022-12-10T02:45:18;58.00;;;46.67;;
7879;SDS011;3985;49.366;2.738;2022-12-10T02:47:48;60.33;;;48.67;;
7879;SDS011;3985;49.366;2.738;2022-12-10T02:50:16;68.00;;;57.67;;
7879;SDS011;3985;49.366;2.738;2022-12-10T02:52:46;64.67;;;52.67;;
7879;SDS011;3985;49.366;2.738;2022-12-10T02:55:13;64.67;;;50.00;;
7879;SDS011;3985;49.366;2.738;2022-12-10T02:57:42;55.00;;;45.67;;
7879;SDS011;3985;49.366;2.738;2022-12-10T03:00:24;53.67;;;42.33;;
7879;SDS011;3985;49.366;2.738;2022-12-10T03:03:08;66.00;;;53.67;;
7879;SDS011;3985;49.366;2.738;2022-12-10T03:05:45;55.00;;;43.00;;
7879;SDS011;3985;49.366;2.738;2022-12-10T03:08:16;39.33;;;38.33;;
7879;SDS011;3985;49.366;2.738;2022-12-10T03:10:48;39.67;;;35.33;;
7879;SDS011;3985;49.366;2.738;2022-12-10T03:13:20;49.33;;;43.33;;
7879;SDS011;3985;49.366;2.738;2022-12-10T03:15:51;57.33;;;43.00;;
7879;SDS011;3985;49.366;2.738;2022-12-10T03:18:21;45.67;;;39.00;;
7879;SDS011;3985;49.366;2.738;2022-12-10T03:20:52;57.67;;;46.33;;
7879;SDS011;3985;49.366;2.738;2022-12-10T03:23:22;53.33;;;45.33;;
7879;SDS011;3985;49.366;2.738;2022-12-10T03:25:50;62.00;;;48.67;;
7879;SDS011;3985;49.366;2.738;2022-12-10T03:28:18;58.67;;;44.00;;
7879;SDS011;3985;49.366;2.738;2022-12-10T03:30:48;43.25;;;39.00;;
7879;SDS011;3985;49.366;2.738;2022-12-10T03:33:18;41.25;;;38.25;;
7879;SDS011;3985;49.366;2.738;2022-12-10T03:35:46;47.75;;;40.50;;
7879;SDS011;3985;49.366;2.738;2022-12-10T03:38:14;42.75;;;35.75;;
7879;SDS011;3985;49.366;2.738;2022-12-10T03:40:42;38.50;;;36.75;;
7879;SDS011;3985;49.366;2.738;2022-12-10T03:43:11;44.67;;;39.67;;
7879;SDS011;3985;49.366;2.738;2022-12-10T03:45:39;38.75;;;36.00;;
7879;SDS011;3985;49.366;2.738;2022-12-10T03:48:08;49.67;;;42.00;;
7879;SDS011;3985;49.366;2.738;2022-12-10T03:50:36;36.25;;;31.50;;
7879;SDS011;3985;49.366;2.738;2022-12-10T03:53:03;42.33;;;38.00;;
7879;SDS011;3985;49.366;2.738;2022-12-10T03:55:30;41.25;;;38.00;;
7879;SDS011;3985;49.366;2.738;2022-12-10T03:57:58;50.25;;;42.25;;
7879;SDS011;3985;49.366;2.738;2022-12-10T04:00:26;52.75;;;41.25;;
7879;SDS011;3985;49.366;2.738;2022-12-10T04:02:53;36.50;;;35.75;;
7879;SDS011;3985;49.366;2.738;2022-12-10T04:05:23;54.75;;;44.50;;
7879;SDS011;3985;49.366;2.738;2022-12-10T04:07:50;44.75;;;37.75;;
7879;SDS011;3985;49.366;2.738;2022-12-10T04:10:17;43.50;;;39.25;;
7879;SDS011;3985;49.366;2.738;2022-12-10T04:12:45;54.67;;;41.33;;
7879;SDS011;3985;49.366;2.738;2022-12-10T04:15:32;46.25;;;39.75;;
7879;SDS011;3985;49.366;2.738;2022-12-10T04:18:17;38.00;;;36.33;;
7879;SDS011;3985;49.366;2.738;2022-12-10T04:20:46;49.67;;;42.00;;
7879;SDS011;3985;49.366;2.738;2022-12-10T04:23:31;40.25;;;35.50;;
7879;SDS011;3985;49.366;2.738;2022-12-10T04:26:16;49.75;;;39.75;;
7879;SDS011;3985;49.366;2.738;2022-12-10T04:29:01;34.75;;;33.25;;
7879;SDS011;3985;49.366;2.738;2022-12-10T04:31:30;56.00;;;46.00;;
7879;SDS011;3985;49.366;2.738;2022-12-10T04:33:57;59.00;;;48.33;;
7879;SDS011;3985;49.366;2.738;2022-12-10T04:36:27;77.33;;;58.67;;
7879;SDS011;3985;49.366;2.738;2022-12-10T04:39:04;61.33;;;44.00;;
7879;SDS011;3985;49.366;2.738;2022-12-10T04:41:31;58.33;;;47.67;;
7879;SDS011;3985;49.366;2.738;2022-12-10T04:44:01;58.67;;;47.00;;
7879;SDS011;3985;49.366;2.738;2022-12-10T04:46:29;56.00;;;43.33;;
7879;SDS011;3985;49.366;2.738;2022-12-10T04:48:57;61.67;;;47.00;;
7879;SDS011;3985;49.366;2.738;2022-12-10T04:51:24;60.33;;;45.67;;
7879;SDS011;3985;49.366;2.738;2022-12-10T04:53:53;46.67;;;41.67;;
7879;SDS011;3985;49.366;2.738;2022-12-10T04:56:20;47.33;;;42.67;;
7879;SDS011;3985;49.366;2.738;2022-12-10T04:58:47;37.50;;;34.50;;
7879;SDS011;3985;49.366;2.738;2022-12-10T05:01:15;36.25;;;31.75;;
7879;SDS011;3985;49.366;2.738;2022-12-10T05:03:43;43.33;;;42.33;;
7879;SDS011;3985;49.366;2.738;2022-12-10T05:06:11;45.75;;;39.00;;
7879;SDS011;3985;49.366;2.738;2022-12-10T05:08:40;56.33;;;45.33;;
7879;SDS011;3985;49.366;2.738;2022-12-10T05:11:11;51.33;;;42.67;;
7879;SDS011;3985;49.366;2.738;2022-12-10T05:13:40;46.33;;;43.00;;
7879;SDS011;3985;49.366;2.738;2022-12-10T05:16:09;54.67;;;46.00;;
7879;SDS011;3985;49.366;2.738;2022-12-10T05:18:38;50.00;;;42.00;;
7879;SDS011;3985;49.366;2.738;2022-12-10T05:21:07;52.67;;;41.33;;
7879;SDS011;3985;49.366;2.738;2022-12-10T05:23:37;43.33;;;40.33;;
7879;SDS011;3985;49.366;2.738;2022-12-10T05:26:04;49.00;;;42.00;;
7879;SDS011;3985;49.366;2.738;2022-12-10T05:28:37;45.33;;;38.00;;
7879;SDS011;3985;49.366;2.738;2022-12-10T05:31:10;42.67;;;34.00;;
7879;SDS011;3985;49.366;2.738;2022-12-10T06:09:59;43.67;;;35.67;;
7879;SDS011;3985;49.366;2.738;2022-12-10T06:12:27;40.00;;;30.00;;
7879;SDS011;3985;49.366;2.738;2022-12-10T06:14:54;28.33;;;23.00;;
7879;SDS011;3985;49.366;2.738;2022-12-10T06:17:22;26.33;;;25.67;;
7879;SDS011;3985;49.366;2.738;2022-12-10T06:19:50;27.00;;;24.00;;
7879;SDS011;3985;49.366;2.738;2022-12-10T06:22:19;28.00;;;24.67;;
7879;SDS011;3985;49.366;2.738;2022-12-10T06:24:47;29.67;;;29.67;;
7879;SDS011;3985;49.366;2.738;2022-12-10T06:27:16;31.33;;;27.33;;
7879;SDS011;3985;49.366;2.738;2022-12-10T06:29:44;37.33;;;30.00;;
7879;SDS011;3985;49.366;2.738;2022-12-10T06:32:14;29.33;;;24.67;;
7879;SDS011;3985;49.366;2.738;2022-12-10T06:34:42;43.67;;;30.33;;
7879;SDS011;3985;49.366;2.738;2022-12-10T06:37:09;50.33;;;44.00;;
7879;SDS011;3985;49.366;2.738;2022-12-10T06:39:37;32.67;;;27.33;;
7879;SDS011;3985;49.366;2.738;2022-12-10T06:42:06;40.33;;;29.67;;
7879;SDS011;3985;49.366;2.738;2022-12-10T06:44:37;28.67;;;23.33;;
7879;SDS011;3985;49.366;2.738;2022-12-10T06:47:08;30.67;;;26.67;;
7879;SDS011;3985;49.366;2.738;2022-12-10T06:49:36;39.67;;;34.00;;
7879;SDS011;3985;49.366;2.738;2022-12-10T06:52:03;32.33;;;32.33;;
7879;SDS011;3985;49.366;2.738;2022-12-10T06:54:31;26.00;;;26.00;;
7879;SDS011;3985;49.366;2.738;2022-12-10T06:56:58;26.75;;;19.25;;
7879;SDS011;3985;49.366;2.738;2022-12-10T06:59:26;21.50;;;16.50;;
7879;SDS011;3985;49.366;2.738;2022-12-10T07:01:55;15.50;;;15.50;;
7879;SDS011;3985;49.366;2.738;2022-12-10T07:04:24;27.00;;;18.50;;
7879;SDS011;3985;49.366;2.738;2022-12-10T07:06:52;20.00;;;16.75;;
7879;SDS011;3985;49.366;2.738;2022-12-10T07:09:19;20.25;;;14.50;;
7879;SDS011;3985;49.366;2.738;2022-12-10T07:11:47;16.25;;;12.00;;
7879;SDS011;3985;49.366;2.738;2022-12-10T07:14:15;18.25;;;18.00;;
7879;SDS011;3985;49.366;2.738;2022-12-10T07:16:43;24.50;;;16.00;;
7879;SDS011;3985;49.366;2.738;2022-12-10T07:19:13;15.75;;;15.75;;
7879;SDS011;3985;49.366;2.738;2022-12-10T07:21:41;20.25;;;17.75;;
7879;SDS011;3985;49.366;2.738;2022-12-10T07:24:11;16.50;;;13.50;;
7879;SDS011;3985;49.366;2.738;2022-12-10T07:26:42;20.00;;;20.00;;
7879;SDS011;3985;49.366;2.738;2022-12-10T07:29:11;15.25;;;14.25;;
7879;SDS011;3985;49.366;2.738;2022-12-10T07:31:42;21.50;;;19.25;;
7879;SDS011;3985;49.366;2.738;2022-12-10T07:34:10;31.67;;;25.00;;
7879;SDS011;3985;49.366;2.738;2022-12-10T07:36:43;22.25;;;21.50;;
7879;SDS011;3985;49.366;2.738;2022-12-10T07:39:10;20.00;;;15.00;;
7879;SDS011;3985;49.366;2.738;2022-12-10T07:41:42;24.00;;;21.25;;
7879;SDS011;3985;49.366;2.738;2022-12-10T07:44:13;20.50;;;16.25;;
7879;SDS011;3985;49.366;2.738;2022-12-10T07:46:41;22.75;;;17.50;;
7879;SDS011;3985;49.366;2.738;2022-12-10T07:49:09;45.00;;;40.67;;
7879;SDS011;3985;49.366;2.738;2022-12-10T07:51:38;27.75;;;25.25;;
7879;SDS011;3985;49.366;2.738;2022-12-10T07:54:05;17.50;;;16.00;;
7879;SDS011;3985;49.366;2.738;2022-12-10T07:56:33;23.00;;;19.00;;
7879;SDS011;3985;49.366;2.738;2022-12-10T07:59:01;16.25;;;14.50;;
7879;SDS011;3985;49.366;2.738;2022-12-10T08:01:34;19.00;;;13.50;;
7879;SDS011;3985;49.366;2.738;2022-12-10T08:04:02;25.25;;;20.25;;
7879;SDS011;3985;49.366;2.738;2022-12-10T08:06:30;24.00;;;17.50;;
7879;SDS011;3985;49.366;2.738;2022-12-10T08:08:59;17.75;;;17.75;;
7879;SDS011;3985;49.366;2.738;2022-12-10T08:11:27;24.00;;;23.00;;
7879;SDS011;3985;49.366;2.738;2022-12-10T08:13:55;18.00;;;18.00;;
7879;SDS011;3985;49.366;2.738;2022-12-10T08:16:23;22.25;;;20.00;;
7879;SDS011;3985;49.366;2.738;2022-12-10T08:18:53;18.25;;;16.75;;
7879;SDS011;3985;49.366;2.738;2022-12-10T08:21:23;22.00;;;16.75;;
7879;SDS011;3985;49.366;2.738;2022-12-10T08:23:52;23.50;;;20.00;;
7879;SDS011;3985;49.366;2.738;2022-12-10T08:26:22;12.00;;;11.75;;
7879;SDS011;3985;49.366;2.738;2022-12-10T08:28:51;16.50;;;15.75;;
7879;SDS011;3985;49.366;2.738;2022-12-10T08:31:19;23.25;;;19.50;;
7879;SDS011;3985;49.366;2.738;2022-12-10T08:33:48;21.00;;;15.00;;
7879;SDS011;3985;49.366;2.738;2022-12-10T08:36:16;25.75;;;19.75;;
7879;SDS011;3985;49.366;2.738;2022-12-10T08:38:44;28.50;;;25.00;;
7879;SDS011;3985;49.366;2.738;2022-12-10T08:41:12;22.50;;;20.50;;
7879;SDS011;3985;49.366;2.738;2022-12-10T08:43:43;22.00;;;22.00;;
7879;SDS011;3985;49.366;2.738;2022-12-10T08:46:11;28.25;;;21.00;;
7879;SDS011;3985;49.366;2.738;2022-12-10T08:48:39;29.25;;;22.00;;
7879;SDS011;3985;49.366;2.738;2022-12-10T08:51:08;21.00;;;21.00;;
7879;SDS011;3985;49.366;2.738;2022-12-10T08:53:37;24.00;;;16.75;;
7879;SDS011;3985;49.366;2.738;2022-12-10T08:56:04;25.75;;;18.75;;
7879;SDS011;3985;49.366;2.738;2022-12-10T08:58:32;24.25;;;21.50;;
7879;SDS011;3985;49.366;2.738;2022-12-10T09:01:02;31.50;;;25.50;;
7879;SDS011;3985;49.366;2.738;2022-12-10T09:03:33;28.00;;;27.00;;
7879;SDS011;3985;49.366;2.738;2022-12-10T09:06:03;22.00;;;20.75;;
7879;SDS011;3985;49.366;2.738;2022-12-10T09:08:32;27.00;;;18.50;;
7879;SDS011;3985;49.366;2.738;2022-12-10T09:11:03;24.50;;;21.25;;
7879;SDS011;3985;49.366;2.738;2022-12-10T09:13:32;28.25;;;20.00;;
7879;SDS011;3985;49.366;2.738;2022-12-10T09:15:59;19.00;;;18.25;;
7879;SDS011;3985;49.366;2.738;2022-12-10T09:18:28;18.25;;;17.25;;
7879;SDS011;3985;49.366;2.738;2022-12-10T09:20:58;28.25;;;21.00;;
7879;SDS011;3985;49.366;2.738;2022-12-10T09:23:25;24.25;;;23.25;;
7879;SDS011;3985;49.366;2.738;2022-12-10T09:25:53;32.50;;;28.75;;
7879;SDS011;3985;49.366;2.738;2022-12-10T09:28:22;19.00;;;15.75;;
7879;SDS011;3985;49.366;2.738;2022-12-10T09:30:56;24.75;;;24.00;;
7879;SDS011;3985;49.366;2.738;2022-12-10T09:33:24;21.25;;;20.00;;
7879;SDS011;3985;49.366;2.738;2022-12-10T09:35:53;30.50;;;21.25;;
7879;SDS011;3985;49.366;2.738;2022-12-10T09:38:20;24.75;;;22.00;;
7879;SDS011;3985;49.366;2.738;2022-12-10T09:40:49;29.00;;;21.75;;
7879;SDS011;3985;49.366;2.738;2022-12-10T09:43:26;26.50;;;22.50;;
7879;SDS011;3985;49.366;2.738;2022-12-10T09:49:02;21.75;;;20.00;;
7879;SDS011;3985;49.366;2.738;2022-12-10T09:51:37;32.50;;;30.50;;
7879;SDS011;3985;49.366;2.738;2022-12-10T09:54:11;31.00;;;25.50;;
7879;SDS011;3985;49.366;2.738;2022-12-10T09:56:44;25.25;;;23.25;;
7879;SDS011;3985;49.366;2.738;2022-12-10T09:59:15;25.25;;;23.25;;
7879;SDS011;3985;49.366;2.738;2022-12-10T10:01:47;25.50;;;25.50;;
7879;SDS011;3985;49.366;2.738;2022-12-10T10:04:18;25.25;;;24.25;;
7879;SDS011;3985;49.366;2.738;2022-12-10T10:06:47;37.50;;;28.00;;
7879;SDS011;3985;49.366;2.738;2022-12-10T10:09:15;24.50;;;20.50;;
7879;SDS011;3985;49.366;2.738;2022-12-10T10:11:43;29.50;;;29.50;;
7879;SDS011;3985;49.366;2.738;2022-12-10T10:14:13;50.33;;;42.00;;
7879;SDS011;3985;49.366;2.738;2022-12-10T10:16:44;36.50;;;30.50;;
7879;SDS011;3985;49.366;2.738;2022-12-10T10:19:15;36.25;;;29.25;;
7879;SDS011;3985;49.366;2.738;2022-12-10T10:21:44;26.50;;;21.75;;
7879;SDS011;3985;49.366;2.738;2022-12-10T10:24:17;26.00;;;25.25;;
7879;SDS011;3985;49.366;2.738;2022-12-10T10:26:46;33.00;;;25.75;;
7879;SDS011;3985;49.366;2.738;2022-12-10T10:29:16;31.75;;;26.50;;
7879;SDS011;3985;49.366;2.738;2022-12-10T10:32:09;26.25;;;25.00;;
7879;SDS011;3985;49.366;2.738;2022-12-10T10:34:39;26.00;;;26.00;;
7879;SDS011;3985;49.366;2.738;2022-12-10T10:37:13;37.00;;;28.00;;
7879;SDS011;3985;49.366;2.738;2022-12-10T10:39:46;21.25;;;19.50;;
7879;SDS011;3985;49.366;2.738;2022-12-10T10:42:20;21.00;;;17.50;;
7879;SDS011;3985;49.366;2.738;2022-12-10T10:44:54;38.75;;;32.25;;
7879;SDS011;3985;49.366;2.738;2022-12-10T10:47:26;33.75;;;26.75;;
7879;SDS011;3985;49.366;2.738;2022-12-10T10:49:56;34.25;;;30.50;;
7879;SDS011;3985;49.366;2.738;2022-12-10T10:52:27;35.75;;;33.00;;
7879;SDS011;3985;49.366;2.738;2022-12-10T10:54:56;30.75;;;29.00;;
7879;SDS011;3985;49.366;2.738;2022-12-10T10:57:25;28.00;;;24.75;;
7879;SDS011;3985;49.366;2.738;2022-12-10T10:59:56;31.75;;;24.25;;
7879;SDS011;3985;49.366;2.738;2022-12-10T11:02:32;32.25;;;28.00;;
7879;SDS011;3985;49.366;2.738;2022-12-10T11:05:04;34.50;;;28.50;;
7879;SDS011;3985;49.366;2.738;2022-12-10T11:07:34;28.25;;;27.25;;
7879;SDS011;3985;49.366;2.738;2022-12-10T11:10:03;38.75;;;33.00;;
7879;SDS011;3985;49.366;2.738;2022-12-10T11:12:44;32.75;;;31.50;;
7879;SDS011;3985;49.366;2.738;2022-12-10T11:15:31;37.50;;;28.75;;
7879;SDS011;3985;49.366;2.738;2022-12-10T11:18:01;24.50;;;23.75;;
7879;SDS011;3985;49.366;2.738;2022-12-10T11:20:30;26.25;;;24.25;;
7879;SDS011;3985;49.366;2.738;2022-12-10T11:23:17;30.25;;;27.75;;
7879;SDS011;3985;49.366;2.738;2022-12-10T11:25:46;29.00;;;28.50;;
7879;SDS011;3985;49.366;2.738;2022-12-10T11:28:28;26.50;;;23.50;;
7879;SDS011;3985;49.366;2.738;2022-12-10T11:31:07;38.75;;;34.50;;
7879;SDS011;3985;49.366;2.738;2022-12-10T11:33:58;33.25;;;29.50;;
7879;SDS011;3985;49.366;2.738;2022-12-10T11:36:33;29.00;;;24.75;;
7879;SDS011;3985;49.366;2.738;2022-12-10T11:39:10;32.25;;;28.25;;
7879;SDS011;3985;49.366;2.738;2022-12-10T11:41:49;30.00;;;23.75;;
7879;SDS011;3985;49.366;2.738;2022-12-10T11:44:22;32.75;;;24.50;;
7879;SDS011;3985;49.366;2.738;2022-12-10T11:47:08;31.25;;;28.00;;
7879;SDS011;3985;49.366;2.738;2022-12-10T11:50:05;26.25;;;21.50;;
7879;SDS011;3985;49.366;2.738;2022-12-10T11:52:54;26.25;;;25.00;;
7879;SDS011;3985;49.366;2.738;2022-12-10T11:55:32;38.00;;;29.00;;
7879;SDS011;3985;49.366;2.738;2022-12-10T11:58:08;32.00;;;26.50;;
7879;SDS011;3985;49.366;2.738;2022-12-10T12:00:59;31.50;;;25.50;;
7879;SDS011;3985;49.366;2.738;2022-12-10T12:03:39;26.75;;;26.75;;
7879;SDS011;3985;49.366;2.738;2022-12-10T12:06:31;32.50;;;29.75;;
7879;SDS011;3985;49.366;2.738;2022-12-10T12:09:13;29.50;;;25.00;;
7879;SDS011;3985;49.366;2.738;2022-12-10T12:11:51;29.50;;;26.00;;
7879;SDS011;3985;49.366;2.738;2022-12-10T12:14:27;29.00;;;27.00;;
7879;SDS011;3985;49.366;2.738;2022-12-10T12:17:03;31.00;;;27.50;;
7879;SDS011;3985;49.366;2.738;2022-12-10T12:19:35;26.00;;;24.75;;
7879;SDS011;3985;49.366;2.738;2022-12-10T12:22:09;30.50;;;25.50;;
7879;SDS011;3985;49.366;2.738;2022-12-10T12:24:41;24.25;;;23.50;;
7879;SDS011;3985;49.366;2.738;2022-12-10T12:27:15;34.00;;;26.75;;
7879;SDS011;3985;49.366;2.738;2022-12-10T12:29:49;27.00;;;23.75;;
7879;SDS011;3985;49.366;2.738;2022-12-10T12:32:24;34.25;;;27.75;;
7879;SDS011;3985;49.366;2.738;2022-12-10T12:34:54;29.25;;;22.25;;
7879;SDS011;3985;49.366;2.738;2022-12-10T12:37:28;32.00;;;27.00;;
7879;SDS011;3985;49.366;2.738;2022-12-10T12:40:00;29.25;;;29.25;;
7879;SDS011;3985;49.366;2.738;2022-12-10T12:42:34;27.00;;;25.50;;
7879;SDS011;3985;49.366;2.738;2022-12-10T12:45:10;35.50;;;32.25;;
7879;SDS011;3985;49.366;2.738;2022-12-10T12:47:41;22.25;;;20.75;;
7879;SDS011;3985;49.366;2.738;2022-12-10T12:50:17;29.75;;;28.00;;
7879;SDS011;3985;49.366;2.738;2022-12-10T12:52:51;42.75;;;34.75;;
7879;SDS011;3985;49.366;2.738;2022-12-10T12:55:20;32.00;;;25.75;;
7879;SDS011;3985;49.366;2.738;2022-12-10T12:57:54;37.00;;;24.75;;
7879;SDS011;3985;49.366;2.738;2022-12-10T13:00:29;33.25;;;28.75;;
7879;SDS011;3985;49.366;2.738;2022-12-10T13:03:05;22.25;;;17.00;;
7879;SDS011;3985;49.366;2.738;2022-12-10T13:05:44;28.75;;;28.75;;
7879;SDS011;3985;49.366;2.738;2022-12-10T13:08:15;33.50;;;31.75;;
7879;SDS011;3985;49.366;2.738;2022-12-10T13:10:56;31.75;;;24.25;;
7879;SDS011;3985;49.366;2.738;2022-12-10T13:13:30;37.50;;;27.50;;
7879;SDS011;3985;49.366;2.738;2022-12-10T13:19:27;34.25;;;32.25;;
7879;SDS011;3985;49.366;2.738;2022-12-10T13:22:01;31.00;;;24.25;;
7879;SDS011;3985;49.366;2.738;2022-12-10T13:24:44;25.25;;;23.75;;
7879;SDS011;3985;49.366;2.738;2022-12-10T13:27:16;24.00;;;23.75;;
7879;SDS011;3985;49.366;2.738;2022-12-10T13:29:51;25.75;;;22.25;;
7879;SDS011;3985;49.366;2.738;2022-12-10T13:32:23;25.50;;;25.50;;
7879;SDS011;3985;49.366;2.738;2022-12-10T13:37:57;27.25;;;26.50;;
7879;SDS011;3985;49.366;2.738;2022-12-10T13:40:38;30.75;;;26.75;;
7879;SDS011;3985;49.366;2.738;2022-12-10T13:43:37;26.25;;;22.75;;
7879;SDS011;3985;49.366;2.738;2022-12-10T13:46:25;27.25;;;22.50;;
7879;SDS011;3985;49.366;2.738;2022-12-10T13:48:56;29.00;;;27.50;;
7879;SDS011;3985;49.366;2.738;2022-12-10T13:51:26;25.75;;;25.25;;
7879;SDS011;3985;49.366;2.738;2022-12-10T13:54:07;34.00;;;29.75;;
7879;SDS011;3985;49.366;2.738;2022-12-10T13:56:45;38.75;;;34.50;;
7879;SDS011;3985;49.366;2.738;2022-12-10T13:59:20;30.75;;;26.50;;
7879;SDS011;3985;49.366;2.738;2022-12-10T14:01:58;29.25;;;29.00;;
7879;SDS011;3985;49.366;2.738;2022-12-10T14:04:44;29.75;;;23.75;;
7879;SDS011;3985;49.366;2.738;2022-12-10T14:07:30;22.50;;;20.25;;
7879;SDS011;3985;49.366;2.738;2022-12-10T14:09:59;23.25;;;21.25;;
7879;SDS011;3985;49.366;2.738;2022-12-10T14:12:28;23.25;;;22.75;;
7879;SDS011;3985;49.366;2.738;2022-12-10T14:14:58;30.75;;;25.25;;
7879;SDS011;3985;49.366;2.738;2022-12-10T14:17:31;19.75;;;19.75;;
7879;SDS011;3985;49.366;2.738;2022-12-10T14:20:02;24.50;;;22.50;;
7879;SDS011;3985;49.366;2.738;2022-12-10T14:22:33;33.50;;;31.25;;
7879;SDS011;3985;49.366;2.738;2022-12-10T14:25:03;26.50;;;24.00;;
7879;SDS011;3985;49.366;2.738;2022-12-10T14:27:33;30.00;;;25.75;;
7879;SDS011;3985;49.366;2.738;2022-12-10T14:30:11;28.25;;;26.25;;
7879;SDS011;3985;49.366;2.738;2022-12-10T14:32:44;34.50;;;23.25;;
7879;SDS011;3985;49.366;2.738;2022-12-10T14:35:12;36.75;;;30.50;;
7879;SDS011;3985;49.366;2.738;2022-12-10T14:37:44;25.25;;;21.00;;
7879;SDS011;3985;49.366;2.738;2022-12-10T14:40:17;26.00;;;25.25;;
7879;SDS011;3985;49.366;2.738;2022-12-10T14:42:48;20.00;;;15.75;;
7879;SDS011;3985;49.366;2.738;2022-12-10T14:45:18;29.75;;;28.50;;
7879;SDS011;3985;49.366;2.738;2022-12-10T14:47:49;23.00;;;21.75;;
7879;SDS011;3985;49.366;2.738;2022-12-10T14:50:17;34.25;;;27.75;;
7879;SDS011;3985;49.366;2.738;2022-12-10T14:52:49;23.25;;;23.25;;
7879;SDS011;3985;49.366;2.738;2022-12-10T14:55:19;9.75;;;9.75;;
7879;SDS011;3985;49.366;2.738;2022-12-10T14:57:49;27.25;;;26.00;;
7879;SDS011;3985;49.366;2.738;2022-12-10T15:00:20;28.25;;;23.75;;
7879;SDS011;3985;49.366;2.738;2022-12-10T15:02:52;28.50;;;25.75;;
7879;SDS011;3985;49.366;2.738;2022-12-10T15:05:22;36.00;;;25.25;;
7879;SDS011;3985;49.366;2.738;2022-12-10T15:07:52;28.00;;;26.00;;
7879;SDS011;3985;49.366;2.738;2022-12-10T15:10:23;28.50;;;22.75;;
7879;SDS011;3985;49.366;2.738;2022-12-10T15:12:53;28.50;;;23.75;;
7879;SDS011;3985;49.366;2.738;2022-12-10T15:15:23;33.00;;;28.25;;
7879;SDS011;3985;49.366;2.738;2022-12-10T15:17:57;33.50;;;31.25;;
7879;SDS011;3985;49.366;2.738;2022-12-10T15:20:27;21.75;;;19.75;;
7879;SDS011;3985;49.366;2.738;2022-12-10T15:23:15;21.25;;;20.75;;
7879;SDS011;3985;49.366;2.738;2022-12-10T15:25:46;26.25;;;23.00;;
7879;SDS011;3985;49.366;2.738;2022-12-10T15:28:22;20.75;;;17.50;;
7879;SDS011;3985;49.366;2.738;2022-12-10T15:30:51;22.25;;;21.25;;
7879;SDS011;3985;49.366;2.738;2022-12-10T15:33:27;24.75;;;22.50;;
7879;SDS011;3985;49.366;2.738;2022-12-10T15:35:58;31.25;;;27.25;;
7879;SDS011;3985;49.366;2.738;2022-12-10T15:38:26;31.25;;;27.25;;
7879;SDS011;3985;49.366;2.738;2022-12-10T15:40:58;33.25;;;31.00;;
7879;SDS011;3985;49.366;2.738;2022-12-10T15:43:29;30.00;;;25.50;;
7879;SDS011;3985;49.366;2.738;2022-12-10T15:45:59;35.75;;;31.00;;
7879;SDS011;3985;49.366;2.738;2022-12-10T15:48:28;24.25;;;19.00;;
7879;SDS011;3985;49.366;2.738;2022-12-10T15:50:56;30.00;;;28.00;;
7879;SDS011;3985;49.366;2.738;2022-12-10T15:53:25;36.00;;;30.75;;
7879;SDS011;3985;49.366;2.738;2022-12-10T15:55:54;32.25;;;29.75;;
7879;SDS011;3985;49.366;2.738;2022-12-10T15:58:22;31.25;;;28.75;;
7879;SDS011;3985;49.366;2.738;2022-12-10T16:00:49;31.00;;;30.75;;